createdAt,value
2019-05-11T07:35:23.766Z,99.90
2019-05-11T07:35:58.286Z,99.90
2019-05-11T07:36:30.843Z,99.90
2019-05-11T07:37:03.504Z,99.90
2019-05-11T07:37:38.277Z,99.90
2019-05-11T07:38:10.976Z,99.90
2019-05-11T07:38:44.410Z,99.90
2019-05-11T07:39:18.711Z,99.90
2019-05-11T07:39:51.822Z,99.90
2019-05-11T07:40:24.547Z,99.90
2019-05-11T07:40:58.230Z,99.90
2019-05-11T07:41:31.045Z,99.90
2019-05-11T07:42:03.751Z,99.90
2019-05-11T07:42:37.944Z,99.90
2019-05-11T07:43:10.910Z,99.90
2019-05-11T07:43:43.583Z,99.90
2019-05-11T07:44:16.219Z,99.90
2019-05-11T07:44:48.871Z,99.90
2019-05-11T07:45:21.500Z,99.90
2019-05-11T07:45:54.168Z,99.90
2019-05-11T07:46:28.795Z,99.90
2019-05-11T07:47:01.306Z,99.90
2019-05-11T07:47:34.543Z,99.90
2019-05-11T07:48:08.291Z,99.90
2019-05-11T07:48:40.980Z,99.90
2019-05-11T07:49:13.638Z,99.90
2019-05-11T07:49:48.709Z,99.90
2019-05-11T07:50:28.335Z,99.90
2019-05-11T07:50:59.313Z,99.90
2019-05-11T07:51:31.968Z,99.90
2019-05-11T07:52:04.603Z,99.90
2019-05-11T07:52:37.931Z,99.90
2019-05-11T07:53:10.811Z,99.90
2019-05-11T07:53:43.896Z,99.90
2019-05-11T07:54:18.700Z,99.90
2019-05-11T07:54:53.020Z,99.90
2019-05-11T07:55:28.152Z,99.90
2019-05-11T07:56:00.651Z,99.90
2019-05-11T07:56:33.278Z,99.90
2019-05-11T07:57:07.881Z,99.90
2019-05-11T07:57:41.318Z,99.90
2019-05-11T07:58:14.457Z,99.90
2019-05-11T07:58:48.065Z,99.90
2019-05-11T07:59:21.086Z,99.90
2019-05-11T07:59:53.743Z,99.90
2019-05-11T08:00:28.045Z,99.90
2019-05-11T08:01:01.093Z,99.90
2019-05-11T08:01:34.234Z,99.90
2019-05-11T08:02:08.869Z,99.90
2019-05-11T08:02:41.764Z,99.90
2019-05-11T08:03:14.430Z,99.30
2019-05-11T08:03:48.310Z,99.90
2019-05-11T08:04:21.575Z,99.90
2019-05-11T08:04:54.314Z,99.90
2019-05-11T08:05:28.376Z,99.90
2019-05-11T08:06:02.868Z,99.90
2019-05-11T08:06:35.660Z,99.90
2019-05-11T08:07:08.523Z,99.90
2019-05-11T08:07:41.928Z,99.90
2019-05-11T08:08:14.612Z,99.90
2019-05-11T08:08:49.046Z,99.90
2019-05-11T08:09:22.026Z,99.90
2019-05-11T08:09:54.667Z,99.90
2019-05-11T08:10:28.327Z,99.90
2019-05-11T08:11:01.335Z,99.90
2019-05-11T08:11:33.997Z,99.90
2019-05-11T08:12:08.930Z,99.90
2019-05-11T08:12:41.780Z,99.90
2019-05-11T08:13:14.437Z,99.90
2019-05-11T08:13:48.075Z,99.90
2019-05-11T08:14:21.067Z,99.90
2019-05-11T08:15:02.576Z,99.90
2019-05-11T08:15:28.461Z,99.90
2019-05-11T08:16:02.016Z,99.90
2019-05-11T08:16:34.798Z,99.90
2019-05-11T08:17:08.786Z,99.90
2019-05-11T08:17:41.636Z,99.90
2019-05-11T08:18:14.296Z,99.90
2019-05-11T08:18:48.191Z,99.90
2019-05-11T08:19:21.943Z,99.90
2019-05-11T08:19:54.529Z,99.90
2019-05-11T08:20:28.094Z,99.90
2019-05-11T08:21:00.934Z,99.90
2019-05-11T08:21:33.554Z,99.90
2019-05-11T08:22:08.538Z,99.90
2019-05-11T08:22:40.926Z,99.90
2019-05-11T08:23:13.596Z,99.90
2019-05-11T08:23:48.334Z,99.90
2019-05-11T08:24:20.724Z,99.90
2019-05-11T08:24:53.386Z,99.90
2019-05-11T08:25:28.514Z,99.90
2019-05-11T08:26:00.882Z,99.90
2019-05-11T08:26:33.885Z,99.90
2019-05-11T08:27:08.374Z,99.90
2019-05-11T08:27:40.979Z,99.90
2019-05-11T08:28:14.051Z,99.90
2019-05-11T08:28:48.644Z,99.90
2019-05-11T08:29:21.510Z,99.90
2019-05-11T08:29:54.151Z,99.90
2019-05-11T08:30:27.847Z,99.90
2019-05-11T08:31:01.012Z,99.90
2019-05-11T08:31:34.998Z,99.30
2019-05-11T08:32:08.277Z,99.30
2019-05-11T08:32:41.142Z,98.90
2019-05-11T08:33:13.781Z,99.30
2019-05-11T08:33:47.997Z,99.60
2019-05-11T08:34:21.958Z,99.40
2019-05-11T08:34:54.973Z,98.90
2019-05-11T08:35:31.173Z,98.00
2019-05-11T08:36:02.946Z,97.10
2019-05-11T08:36:37.692Z,97.20
2019-05-11T08:37:10.089Z,96.80
2019-05-11T08:37:43.837Z,96.70
2019-05-11T08:38:18.091Z,96.50
2019-05-11T08:38:50.899Z,96.70
2019-05-11T08:39:23.543Z,97.30
2019-05-11T08:39:58.490Z,96.70
2019-05-11T08:40:31.219Z,96.60
2019-05-11T08:41:03.859Z,95.30
2019-05-11T08:41:38.479Z,95.80
2019-05-11T08:42:11.041Z,95.50
2019-05-11T08:42:44.548Z,94.70
2019-05-11T08:43:18.024Z,94.80
2019-05-11T08:43:51.117Z,94.40
2019-05-11T08:44:24.215Z,95.00
2019-05-11T08:45:14.790Z,94.80
2019-05-11T08:45:32.279Z,94.80
2019-05-11T08:46:04.938Z,94.50
2019-05-11T08:46:38.988Z,95.00
2019-05-11T08:47:12.727Z,95.20
2019-05-11T08:47:45.391Z,93.90
2019-05-11T08:48:18.686Z,93.80
2019-05-11T08:48:51.597Z,93.40
2019-05-11T08:49:24.622Z,92.90
2019-05-11T08:49:58.917Z,92.90
2019-05-11T08:50:31.756Z,93.00
2019-05-11T08:51:04.451Z,94.00
2019-05-11T08:51:38.586Z,94.50
2019-05-11T08:52:11.819Z,95.00
2019-05-11T08:52:47.850Z,95.40
2019-05-11T08:53:21.040Z,95.80
2019-05-11T08:53:53.689Z,97.00
2019-05-11T08:54:28.679Z,96.50
2019-05-11T08:55:00.946Z,96.30
2019-05-11T08:55:33.595Z,96.40
2019-05-11T08:56:06.239Z,95.90
2019-05-11T08:56:38.866Z,95.60
2019-05-11T08:57:11.515Z,96.00
2019-05-11T08:57:44.443Z,96.10
2019-05-11T08:58:19.350Z,96.70
2019-05-11T08:58:55.086Z,97.50
2019-05-11T08:59:27.865Z,96.10
2019-05-11T09:00:01.770Z,95.40
2019-05-11T09:00:34.714Z,96.00
2019-05-11T09:01:08.856Z,95.10
2019-05-11T09:01:42.099Z,95.50
2019-05-11T09:02:15.504Z,96.60
2019-05-11T09:02:50.763Z,96.60
2019-05-11T09:03:22.642Z,95.90
2019-05-11T09:03:55.280Z,96.30
2019-05-11T09:04:28.844Z,97.80
2019-05-11T09:05:02.735Z,97.20
2019-05-11T09:05:35.392Z,97.30
2019-05-11T09:06:08.565Z,96.60
2019-05-11T09:06:41.644Z,96.10
2019-05-11T09:07:14.303Z,94.70
2019-05-11T09:07:48.476Z,94.90
2019-05-11T09:08:21.508Z,95.40
2019-05-11T09:08:54.203Z,95.10
2019-05-11T09:09:28.630Z,95.10
2019-05-11T09:10:01.716Z,95.80
2019-05-11T09:10:36.994Z,96.00
2019-05-11T09:11:08.806Z,96.50
2019-05-11T09:11:41.463Z,97.00
2019-05-11T09:12:14.129Z,97.10
2019-05-11T09:12:48.805Z,96.90
2019-05-11T09:13:21.551Z,95.90
2019-05-11T09:13:54.515Z,95.50
2019-05-11T09:14:28.396Z,95.10
2019-05-11T09:15:01.259Z,93.60
2019-05-11T09:15:38.277Z,93.00
2019-05-11T09:16:08.370Z,94.20
2019-05-11T09:16:41.013Z,94.40
2019-05-11T09:17:13.648Z,94.60
2019-05-11T09:17:48.605Z,95.10
2019-05-11T09:18:20.763Z,95.40
2019-05-11T09:18:53.405Z,95.30
2019-05-11T09:19:28.240Z,94.80
2019-05-11T09:20:00.762Z,94.40
2019-05-11T09:20:33.953Z,93.80
2019-05-11T09:21:08.363Z,94.10
2019-05-11T09:21:41.042Z,93.60
2019-05-11T09:22:13.674Z,93.20
2019-05-11T09:22:48.521Z,93.00
2019-05-11T09:23:33.463Z,93.10
2019-05-11T09:23:57.810Z,93.50
2019-05-11T09:24:30.325Z,94.10
2019-05-11T09:25:03.222Z,94.60
2019-05-11T09:25:38.299Z,94.30
2019-05-11T09:26:10.895Z,93.70
2019-05-11T09:26:43.602Z,93.50
2019-05-11T09:27:18.360Z,93.70
2019-05-11T09:27:51.368Z,93.40
2019-05-11T09:28:24.002Z,92.30
2019-05-11T09:28:58.233Z,92.60
2019-05-11T09:29:31.007Z,93.30
2019-05-11T09:30:03.983Z,93.70
2019-05-11T09:30:37.795Z,93.90
2019-05-11T09:31:10.626Z,93.50
2019-05-11T09:31:43.281Z,93.30
2019-05-11T09:32:18.071Z,92.30
2019-05-11T09:32:50.788Z,92.60
2019-05-11T09:33:23.719Z,93.00
2019-05-11T09:33:58.407Z,92.90
2019-05-11T09:34:31.243Z,93.00
2019-05-11T09:35:03.976Z,90.90
2019-05-11T09:35:47.675Z,91.40
2019-05-11T09:36:11.242Z,92.20
2019-05-11T09:36:43.868Z,93.00
2019-05-11T09:37:18.439Z,92.40
2019-05-11T09:37:51.550Z,91.00
2019-05-11T09:38:24.214Z,91.70
2019-05-11T09:38:58.128Z,91.50
2019-05-11T09:39:30.924Z,90.80
2019-05-11T09:40:03.772Z,93.20
2019-05-11T09:40:38.364Z,91.90
2019-05-11T09:41:12.223Z,92.40
2019-05-11T09:41:45.106Z,91.50
2019-05-11T09:42:20.792Z,91.20
2019-05-11T09:42:53.443Z,91.90
2019-05-11T09:43:28.199Z,91.80
2019-05-11T09:44:01.156Z,91.10
2019-05-11T09:44:33.799Z,91.30
2019-05-11T09:45:07.977Z,91.20
2019-05-11T09:45:48.286Z,90.90
2019-05-11T09:46:15.710Z,92.00
2019-05-11T09:46:51.202Z,93.50
2019-05-11T09:47:24.307Z,93.30
2019-05-11T09:47:58.278Z,93.60
2019-05-11T09:48:31.117Z,92.90
2019-05-11T09:49:03.739Z,93.10
2019-05-11T09:49:47.151Z,93.10
2019-05-11T09:50:10.869Z,92.90
2019-05-11T09:50:43.792Z,94.10
2019-05-11T09:51:18.434Z,92.70
2019-05-11T09:51:51.268Z,90.40
2019-05-11T09:52:24.243Z,89.20
2019-05-11T09:52:58.081Z,90.30
2019-05-11T09:53:31.787Z,91.20
2019-05-11T09:54:04.464Z,90.70
2019-05-11T09:54:38.227Z,89.40
2019-05-11T09:55:11.276Z,83.70
2019-05-11T09:55:43.937Z,84.50
2019-05-11T09:56:18.384Z,87.90
2019-05-11T09:56:51.038Z,88.60
2019-05-11T09:57:23.715Z,89.30
2019-05-11T09:57:58.000Z,90.10
2019-05-11T09:58:31.504Z,86.20
2019-05-11T09:59:04.160Z,87.90
2019-05-11T09:59:38.521Z,87.10
2019-05-11T10:00:11.920Z,85.90
2019-05-11T10:00:44.562Z,86.50
2019-05-11T10:01:20.117Z,86.00
2019-05-11T10:01:53.781Z,88.80
2019-05-11T10:02:27.923Z,89.50
2019-05-11T10:03:01.078Z,85.30
2019-05-11T10:03:33.694Z,85.60
2019-05-11T10:04:08.784Z,86.20
2019-05-11T10:04:41.169Z,88.00
2019-05-11T10:05:24.983Z,88.50
2019-05-11T10:05:58.126Z,89.10
2019-05-11T10:06:31.519Z,84.90
2019-05-11T10:07:04.894Z,84.50
2019-05-11T10:07:38.178Z,86.60
2019-05-11T10:08:11.218Z,88.70
2019-05-11T10:08:43.887Z,87.10
2019-05-11T10:09:18.672Z,86.40
2019-05-11T10:09:50.984Z,87.10
2019-05-11T10:10:23.635Z,87.10
2019-05-11T10:10:58.100Z,85.90
2019-05-11T10:11:30.754Z,87.20
2019-05-11T10:12:03.385Z,87.80
2019-05-11T10:12:38.020Z,87.90
2019-05-11T10:13:10.693Z,85.90
2019-05-11T10:13:43.738Z,85.10
2019-05-11T10:14:18.753Z,85.80
2019-05-11T10:14:51.536Z,86.90
2019-05-11T10:15:24.362Z,87.70
2019-05-11T10:16:04.446Z,87.20
2019-05-11T10:16:31.936Z,86.60
2019-05-11T10:17:04.585Z,86.10
2019-05-11T10:17:38.217Z,85.10
2019-05-11T10:18:11.521Z,85.40
2019-05-11T10:18:44.215Z,86.50
2019-05-11T10:19:17.882Z,85.70
2019-05-11T10:19:50.694Z,85.90
2019-05-11T10:20:23.386Z,84.20
2019-05-11T10:21:01.575Z,84.40
2019-05-11T10:21:48.662Z,84.20
2019-05-11T10:22:28.861Z,81.90
2019-05-11T10:23:02.123Z,81.60
2019-05-11T10:23:38.075Z,85.80
2019-05-11T10:24:22.539Z,84.30
2019-05-11T10:25:18.054Z,84.10
2019-05-11T10:25:55.192Z,84.60
2019-05-11T10:26:31.233Z,85.80
2019-05-11T10:27:04.882Z,84.10
2019-05-11T10:27:38.370Z,84.40
2019-05-11T10:28:11.128Z,83.20
2019-05-11T10:28:44.066Z,83.00
2019-05-11T10:29:18.278Z,80.40
2019-05-11T10:29:51.247Z,81.20
2019-05-11T10:30:24.179Z,83.20
2019-05-11T10:30:57.876Z,83.60
2019-05-11T10:31:33.000Z,85.20
2019-05-11T10:32:07.994Z,86.00
2019-05-11T10:32:41.190Z,87.10
2019-05-11T10:33:14.118Z,83.30
2019-05-11T10:33:49.038Z,84.50
2019-05-11T10:34:21.679Z,85.20
2019-05-11T10:34:54.755Z,83.60
2019-05-11T10:35:28.814Z,83.90
2019-05-11T10:36:03.202Z,85.80
2019-05-11T10:36:38.325Z,82.90
2019-05-11T10:37:10.437Z,81.20
2019-05-11T10:37:43.099Z,81.50
2019-05-11T10:38:18.018Z,82.90
2019-05-11T10:38:50.501Z,83.20
2019-05-11T10:39:23.179Z,83.70
2019-05-11T10:39:57.759Z,83.80
2019-05-11T10:40:30.760Z,83.20
2019-05-11T10:41:03.429Z,87.70
2019-05-11T10:41:38.562Z,84.20
2019-05-11T10:42:10.536Z,84.00
2019-05-11T10:42:43.188Z,83.10
2019-05-11T10:43:18.384Z,83.10
2019-05-11T10:43:51.110Z,80.90
2019-05-11T10:44:24.194Z,81.10
2019-05-11T10:44:58.279Z,80.70
2019-05-11T10:45:31.303Z,81.10
2019-05-11T10:46:16.137Z,80.80
2019-05-11T10:46:38.425Z,79.00
2019-05-11T10:47:11.172Z,79.00
2019-05-11T10:47:44.175Z,80.20
2019-05-11T10:48:17.841Z,80.90
2019-05-11T10:48:51.039Z,82.20
2019-05-11T10:49:24.836Z,80.90
2019-05-11T10:49:58.010Z,81.10
2019-05-11T10:50:30.832Z,82.40
2019-05-11T10:51:03.856Z,82.30
2019-05-11T10:51:38.360Z,82.30
2019-05-11T10:52:10.955Z,80.60
2019-05-11T10:52:43.616Z,80.30
2019-05-11T10:53:18.530Z,80.70
2019-05-11T10:53:52.125Z,81.80
2019-05-11T10:54:28.452Z,82.40
2019-05-11T10:54:59.989Z,81.70
2019-05-11T10:55:32.631Z,81.00
2019-05-11T10:56:08.076Z,80.90
2019-05-11T10:56:41.168Z,81.10
2019-05-11T10:57:14.195Z,78.90
2019-05-11T10:57:48.780Z,80.50
2019-05-11T10:58:21.288Z,81.10
2019-05-11T10:58:54.783Z,81.80
2019-05-11T10:59:28.382Z,81.00
2019-05-11T11:00:01.523Z,81.10
2019-05-11T11:00:34.164Z,81.50
2019-05-11T11:01:08.818Z,80.90
2019-05-11T11:01:41.634Z,80.30
2019-05-11T11:02:14.630Z,79.70
2019-05-11T11:02:47.788Z,79.90
2019-05-11T11:03:20.853Z,80.80
2019-05-11T11:03:53.806Z,81.00
2019-05-11T11:04:28.605Z,80.10
2019-05-11T11:05:01.247Z,79.90
2019-05-11T11:05:33.892Z,83.40
2019-05-11T11:06:08.506Z,80.10
2019-05-11T11:06:40.984Z,79.50
2019-05-11T11:07:16.390Z,80.20
2019-05-11T11:07:48.537Z,80.60
2019-05-11T11:08:21.595Z,80.90
2019-05-11T11:08:54.239Z,81.40
2019-05-11T11:09:28.191Z,81.30
2019-05-11T11:10:01.475Z,82.20
2019-05-11T11:10:34.180Z,80.30
2019-05-11T11:11:08.148Z,80.50
2019-05-11T11:11:40.858Z,78.30
2019-05-11T11:12:14.666Z,78.60
2019-05-11T11:12:49.004Z,79.40
2019-05-11T11:13:22.190Z,78.70
2019-05-11T11:13:54.828Z,78.20
2019-05-11T11:14:28.741Z,79.10
2019-05-11T11:15:01.557Z,78.80
2019-05-11T11:15:34.193Z,78.70
2019-05-11T11:16:08.404Z,79.40
2019-05-11T11:16:42.960Z,80.70
2019-05-11T11:17:15.750Z,81.50
2019-05-11T11:17:48.661Z,81.90
2019-05-11T11:18:21.588Z,81.80
2019-05-11T11:18:54.263Z,82.40
2019-05-11T11:19:29.008Z,81.80
2019-05-11T11:20:01.883Z,80.70
2019-05-11T11:20:34.532Z,81.90
2019-05-11T11:21:08.668Z,81.80
2019-05-11T11:21:42.374Z,81.20
2019-05-11T11:22:34.971Z,82.60
2019-05-11T11:22:49.873Z,81.20
2019-05-11T11:23:22.514Z,81.20
2019-05-11T11:23:55.165Z,81.50
2019-05-11T11:24:28.698Z,80.60
2019-05-11T11:25:01.948Z,80.40
2019-05-11T11:25:34.612Z,80.60
2019-05-11T11:26:08.252Z,80.50
2019-05-11T11:26:40.998Z,79.70
2019-05-11T11:27:13.939Z,79.30
2019-05-11T11:27:48.434Z,79.70
2019-05-11T11:28:21.317Z,79.90
2019-05-11T11:28:54.395Z,79.80
2019-05-11T11:29:28.747Z,79.80
2019-05-11T11:30:01.543Z,78.60
2019-05-11T11:30:34.195Z,78.40
2019-05-11T11:31:07.744Z,78.30
2019-05-11T11:31:40.614Z,80.60
2019-05-11T11:32:13.262Z,81.10
2019-05-11T11:32:48.083Z,80.00
2019-05-11T11:33:20.738Z,79.40
2019-05-11T11:33:55.667Z,80.10
2019-05-11T11:34:28.127Z,81.00
2019-05-11T11:35:01.332Z,81.20
2019-05-11T11:35:34.140Z,79.30
2019-05-11T11:36:08.549Z,79.30
2019-05-11T11:36:41.706Z,80.30
2019-05-11T11:37:14.347Z,79.40
2019-05-11T11:37:47.881Z,78.20
2019-05-11T11:38:20.892Z,78.50
2019-05-11T11:38:53.606Z,79.90
2019-05-11T11:39:28.361Z,82.80
2019-05-11T11:40:00.668Z,84.00
2019-05-11T11:40:33.304Z,83.90
2019-05-11T11:41:07.623Z,82.90
2019-05-11T11:41:40.473Z,80.80
2019-05-11T11:42:13.116Z,80.50
2019-05-11T11:42:47.718Z,80.80
2019-05-11T11:43:20.191Z,82.60
2019-05-11T11:43:52.839Z,81.40
2019-05-11T11:44:25.485Z,81.70
2019-05-11T11:44:58.843Z,82.10
2019-05-11T11:45:31.459Z,81.50
2019-05-11T11:46:04.119Z,81.50
2019-05-11T11:46:50.282Z,83.00
2019-05-11T11:47:11.387Z,81.70
2019-05-11T11:47:49.081Z,81.70
2019-05-11T11:48:21.336Z,81.70
2019-05-11T11:48:54.005Z,83.40
2019-05-11T11:49:28.300Z,81.60
2019-05-11T11:50:01.176Z,82.20
2019-05-11T11:50:33.813Z,82.10
2019-05-11T11:51:08.065Z,82.80
2019-05-11T11:51:41.342Z,81.00
2019-05-11T11:52:14.317Z,79.80
2019-05-11T11:52:47.730Z,78.20
2019-05-11T11:53:20.545Z,79.50
2019-05-11T11:53:53.158Z,76.80
2019-05-11T11:54:28.490Z,76.20
2019-05-11T11:55:00.556Z,76.00
2019-05-11T11:55:33.374Z,76.00
2019-05-11T11:56:08.064Z,76.50
2019-05-11T11:56:40.455Z,76.80
2019-05-11T11:57:13.159Z,77.10
2019-05-11T11:57:48.441Z,76.70
2019-05-11T11:58:23.776Z,76.90
2019-05-11T11:58:54.688Z,77.10
2019-05-11T11:59:28.719Z,77.60
2019-05-11T12:00:02.174Z,78.30
2019-05-11T12:00:34.806Z,77.50
2019-05-11T12:01:08.208Z,79.20
2019-05-11T12:01:41.092Z,80.50
2019-05-11T12:02:14.094Z,80.20
2019-05-11T12:02:48.713Z,78.90
2019-05-11T12:03:21.395Z,77.80
2019-05-11T12:03:54.048Z,77.70
2019-05-11T12:04:28.233Z,77.20
2019-05-11T12:05:01.633Z,76.00
2019-05-11T12:05:34.615Z,77.40
2019-05-11T12:06:08.719Z,77.30
2019-05-11T12:06:41.591Z,78.10
2019-05-11T12:07:14.383Z,79.70
2019-05-11T12:07:49.024Z,80.30
2019-05-11T12:08:21.663Z,80.00
2019-05-11T12:08:54.352Z,78.90
2019-05-11T12:09:28.720Z,77.90
2019-05-11T12:10:01.464Z,77.50
2019-05-11T12:10:34.078Z,77.80
2019-05-11T12:11:07.913Z,77.40
2019-05-11T12:11:41.026Z,78.50
2019-05-11T12:12:14.048Z,77.20
2019-05-11T12:12:47.602Z,78.20
2019-05-11T12:13:20.397Z,78.60
2019-05-11T12:13:53.111Z,77.00
2019-05-11T12:14:27.984Z,78.70
2019-05-11T12:15:00.350Z,76.80
2019-05-11T12:15:32.994Z,78.20
2019-05-11T12:16:07.529Z,75.30
2019-05-11T12:16:40.334Z,77.40
2019-05-11T12:17:12.987Z,76.70
2019-05-11T12:17:48.225Z,76.90
2019-05-11T12:18:20.710Z,77.40
2019-05-11T12:18:53.385Z,78.60
2019-05-11T12:19:27.905Z,77.40
2019-05-11T12:20:00.509Z,77.70
2019-05-11T12:20:33.180Z,77.90
2019-05-11T12:21:07.798Z,77.00
2019-05-11T12:21:40.246Z,76.90
2019-05-11T12:22:12.895Z,77.20
2019-05-11T12:22:47.487Z,76.90
2019-05-11T12:23:20.601Z,78.00
2019-05-11T12:23:53.249Z,80.20
2019-05-11T12:24:26.034Z,77.20
2019-05-11T12:24:59.012Z,76.80
2019-05-11T12:25:32.266Z,76.70
2019-05-11T12:26:04.926Z,77.00
2019-05-11T12:26:38.840Z,76.50
2019-05-11T12:27:11.796Z,77.30
2019-05-11T12:27:44.426Z,79.90
2019-05-11T12:28:18.411Z,79.50
2019-05-11T12:28:51.408Z,78.60
2019-05-11T12:29:24.036Z,78.80
2019-05-11T12:29:58.160Z,77.60
2019-05-11T12:30:31.060Z,76.00
2019-05-11T12:31:03.706Z,78.50
2019-05-11T12:31:37.974Z,78.90
2019-05-11T12:32:18.393Z,78.90
2019-05-11T12:32:51.169Z,79.00
2019-05-11T12:33:24.148Z,79.40
2019-05-11T12:33:58.587Z,78.40
2019-05-11T12:34:31.440Z,78.40
2019-05-11T12:35:04.281Z,77.10
2019-05-11T12:35:37.750Z,77.30
2019-05-11T12:36:11.752Z,76.50
2019-05-11T12:36:44.404Z,76.80
2019-05-11T12:37:17.886Z,77.30
2019-05-11T12:37:51.191Z,77.40
2019-05-11T12:38:23.856Z,76.40
2019-05-11T12:38:57.996Z,76.40
2019-05-11T12:39:30.966Z,77.10
2019-05-11T12:40:03.875Z,77.00
2019-05-11T12:40:38.954Z,77.80
2019-05-11T12:41:11.376Z,77.80
2019-05-11T12:41:44.461Z,80.30
2019-05-11T12:42:17.982Z,79.30
2019-05-11T12:42:50.747Z,78.50
2019-05-11T12:43:23.391Z,77.80
2019-05-11T12:43:57.790Z,78.30
2019-05-11T12:44:30.870Z,77.60
2019-05-11T12:45:04.574Z,76.40
2019-05-11T12:45:37.739Z,76.50
2019-05-11T12:46:10.379Z,76.30
2019-05-11T12:46:43.107Z,75.90
2019-05-11T12:47:22.184Z,75.20
2019-05-11T12:47:50.253Z,75.10
2019-05-11T12:48:22.888Z,75.80
2019-05-11T12:48:57.235Z,75.00
2019-05-11T12:49:30.683Z,75.00
2019-05-11T12:50:04.063Z,75.50
2019-05-11T12:50:37.902Z,75.90
2019-05-11T12:51:10.663Z,75.30
2019-05-11T12:51:43.613Z,75.60
2019-05-11T12:52:18.417Z,77.00
2019-05-11T12:52:51.503Z,75.90
2019-05-11T12:53:24.135Z,77.20
2019-05-11T12:53:57.670Z,77.10
2019-05-11T12:54:33.926Z,76.70
2019-05-11T12:55:08.534Z,74.20
2019-05-11T12:55:40.924Z,74.50
2019-05-11T12:56:13.570Z,74.90
2019-05-11T12:56:48.748Z,75.50
2019-05-11T12:57:21.429Z,74.90
2019-05-11T12:57:54.451Z,76.00
2019-05-11T12:58:28.159Z,76.40
2019-05-11T12:59:02.361Z,76.00
2019-05-11T12:59:35.012Z,75.40
2019-05-11T13:00:08.729Z,75.50
2019-05-11T13:00:41.621Z,76.50
2019-05-11T13:01:14.266Z,76.90
2019-05-11T13:01:48.597Z,76.60
2019-05-11T13:02:21.677Z,74.00
2019-05-11T13:02:55.149Z,74.60
2019-05-11T13:03:27.967Z,75.50
2019-05-11T13:04:00.756Z,75.60
2019-05-11T13:04:33.391Z,75.30
2019-05-11T13:05:08.674Z,73.80
2019-05-11T13:05:41.270Z,73.50
2019-05-11T13:06:13.927Z,75.30
2019-05-11T13:06:47.921Z,75.00
2019-05-11T13:07:20.805Z,73.70
2019-05-11T13:07:53.905Z,74.30
2019-05-11T13:08:27.776Z,74.00
2019-05-11T13:09:00.547Z,74.50
2019-05-11T13:09:33.593Z,73.30
2019-05-11T13:10:08.300Z,74.10
2019-05-11T13:10:41.050Z,74.40
2019-05-11T13:11:14.121Z,75.60
2019-05-11T13:11:48.238Z,73.80
2019-05-11T13:12:21.114Z,74.10
2019-05-11T13:12:53.761Z,74.20
2019-05-11T13:13:28.236Z,75.40
2019-05-11T13:14:00.862Z,75.80
2019-05-11T13:14:33.523Z,76.60
2019-05-11T13:15:08.255Z,76.10
2019-05-11T13:15:41.429Z,76.50
2019-05-11T13:16:14.517Z,77.20
2019-05-11T13:16:48.336Z,76.50
2019-05-11T13:17:34.071Z,74.90
2019-05-11T13:17:57.954Z,74.90
2019-05-11T13:18:30.083Z,74.10
2019-05-11T13:19:02.723Z,74.80
2019-05-11T13:19:35.779Z,74.50
2019-05-11T13:20:12.247Z,73.10
2019-05-11T13:20:43.809Z,73.60
2019-05-11T13:21:18.303Z,73.90
2019-05-11T13:21:51.279Z,73.90
2019-05-11T13:22:23.952Z,72.70
2019-05-11T13:22:58.767Z,72.20
2019-05-11T13:23:31.377Z,71.70
2019-05-11T13:24:04.404Z,72.10
2019-05-11T13:24:38.520Z,72.80
2019-05-11T13:25:11.460Z,73.30
2019-05-11T13:25:45.187Z,75.50
2019-05-11T13:26:18.154Z,75.90
2019-05-11T13:26:50.987Z,76.20
2019-05-11T13:27:23.802Z,76.20
2019-05-11T13:27:58.073Z,76.70
2019-05-11T13:28:31.041Z,76.50
2019-05-11T13:29:03.666Z,76.30
2019-05-11T13:29:37.897Z,73.90
2019-05-11T13:30:10.846Z,73.60
2019-05-11T13:30:43.972Z,74.00
2019-05-11T13:31:18.709Z,73.70
2019-05-11T13:31:51.695Z,73.10
2019-05-11T13:32:24.736Z,73.60
2019-05-11T13:32:58.173Z,74.20
2019-05-11T13:33:31.035Z,73.50
2019-05-11T13:34:04.062Z,73.50
2019-05-11T13:34:38.670Z,73.90
2019-05-11T13:35:11.562Z,74.50
2019-05-11T13:35:44.210Z,74.40
2019-05-11T13:36:18.637Z,73.90
2019-05-11T13:36:51.467Z,73.70
2019-05-11T13:37:24.125Z,73.00
2019-05-11T13:37:58.505Z,73.00
2019-05-11T13:38:31.305Z,75.60
2019-05-11T13:39:05.967Z,74.90
2019-05-11T13:39:38.923Z,74.20
2019-05-11T13:40:11.969Z,74.20
2019-05-11T13:40:45.512Z,74.10
2019-05-11T13:41:18.752Z,74.00
2019-05-11T13:41:51.843Z,75.30
2019-05-11T13:42:24.926Z,73.00
2019-05-11T13:42:58.174Z,75.10
2019-05-11T13:43:31.063Z,75.20
2019-05-11T13:44:03.763Z,76.00
2019-05-11T13:44:38.462Z,77.40
2019-05-11T13:45:11.899Z,75.80
2019-05-11T13:45:44.948Z,74.50
2019-05-11T13:46:18.255Z,73.90
2019-05-11T13:46:51.064Z,74.20
2019-05-11T13:47:24.043Z,74.50
2019-05-11T13:47:59.272Z,75.50
2019-05-11T13:48:31.568Z,75.80
2019-05-11T13:49:04.250Z,74.70
2019-05-11T13:49:37.784Z,74.40
2019-05-11T13:50:10.733Z,74.40
2019-05-11T13:50:44.211Z,73.80
2019-05-11T13:51:18.267Z,72.40
2019-05-11T13:51:51.157Z,71.90
2019-05-11T13:52:23.861Z,72.60
2019-05-11T13:52:58.371Z,73.00
2019-05-11T13:53:30.993Z,73.50
2019-05-11T13:54:03.642Z,72.50
2019-05-11T13:54:37.576Z,72.50
2019-05-11T13:55:10.641Z,72.70
2019-05-11T13:55:43.556Z,75.00
2019-05-11T13:56:18.436Z,73.90
2019-05-11T13:56:50.639Z,73.00
2019-05-11T13:57:23.317Z,72.70
2019-05-11T13:57:57.901Z,73.50
2019-05-11T13:58:30.467Z,72.80
2019-05-11T13:59:10.622Z,73.80
2019-05-11T13:59:43.606Z,72.90
2019-05-11T14:00:17.605Z,73.00
2019-05-11T14:00:50.439Z,74.10
2019-05-11T14:01:23.103Z,73.50
2019-05-11T14:01:58.080Z,74.20
2019-05-11T14:02:30.163Z,74.20
2019-05-11T14:03:05.233Z,74.60
2019-05-11T14:03:37.888Z,74.40
2019-05-11T14:04:10.491Z,74.80
2019-05-11T14:04:43.284Z,74.50
2019-05-11T14:05:17.881Z,73.40
2019-05-11T14:05:50.362Z,73.60
2019-05-11T14:06:23.010Z,74.20
2019-05-11T14:06:55.657Z,73.00
2019-05-11T14:07:28.295Z,72.50
2019-05-11T14:08:01.255Z,72.30
2019-05-11T14:08:33.945Z,71.80
2019-05-11T14:09:08.633Z,72.20
2019-05-11T14:09:41.275Z,72.90
2019-05-11T14:10:13.947Z,72.80
2019-05-11T14:10:48.614Z,70.90
2019-05-11T14:11:21.064Z,71.30
2019-05-11T14:11:53.691Z,71.50
2019-05-11T14:12:28.438Z,72.10
2019-05-11T14:13:00.796Z,72.00
2019-05-11T14:13:33.443Z,71.70
2019-05-11T14:14:07.794Z,71.90
2019-05-11T14:14:40.560Z,72.00
2019-05-11T14:15:13.220Z,73.10
2019-05-11T14:15:47.942Z,73.20
2019-05-11T14:16:20.311Z,72.30
2019-05-11T14:16:52.939Z,72.90
2019-05-11T14:17:28.799Z,72.40
2019-05-11T14:18:08.237Z,72.80
2019-05-11T14:18:35.103Z,72.70
2019-05-11T14:19:08.679Z,74.20
2019-05-11T14:19:42.414Z,73.40
2019-05-11T14:20:15.145Z,73.40
2019-05-11T14:20:48.457Z,73.60
2019-05-11T14:21:21.640Z,73.90
2019-05-11T14:21:54.704Z,74.50
2019-05-11T14:22:28.213Z,75.10
2019-05-11T14:23:00.964Z,74.60
2019-05-11T14:23:33.571Z,74.40
2019-05-11T14:24:07.799Z,74.50
2019-05-11T14:24:40.670Z,74.70
2019-05-11T14:25:13.359Z,75.40
2019-05-11T14:25:48.458Z,75.90
2019-05-11T14:26:21.147Z,74.00
2019-05-11T14:26:53.790Z,74.80
2019-05-11T14:27:28.178Z,74.40
2019-05-11T14:28:01.328Z,74.70
2019-05-11T14:28:33.953Z,74.70
2019-05-11T14:29:08.505Z,74.60
2019-05-11T14:29:41.715Z,74.60
2019-05-11T14:30:14.656Z,75.00
2019-05-11T14:30:48.720Z,76.00
2019-05-11T14:31:21.517Z,75.30
2019-05-11T14:31:54.444Z,75.30
2019-05-11T14:32:28.510Z,75.60
2019-05-11T14:33:01.312Z,75.70
2019-05-11T14:33:33.955Z,75.80
2019-05-11T14:34:08.803Z,74.80
2019-05-11T14:34:41.069Z,76.40
2019-05-11T14:35:13.755Z,76.30
2019-05-11T14:35:48.725Z,76.40
2019-05-11T14:36:21.455Z,76.80
2019-05-11T14:36:54.118Z,77.10
2019-05-11T14:37:28.581Z,77.60
2019-05-11T14:38:01.184Z,78.00
2019-05-11T14:38:33.864Z,77.40
2019-05-11T14:39:08.378Z,78.20
2019-05-11T14:39:41.787Z,77.70
2019-05-11T14:40:14.427Z,77.00
2019-05-11T14:40:48.009Z,76.90
2019-05-11T14:41:20.847Z,77.30
2019-05-11T14:41:53.882Z,76.80
2019-05-11T14:42:28.515Z,77.60
2019-05-11T14:43:01.375Z,77.60
2019-05-11T14:43:34.034Z,77.50
2019-05-11T14:44:08.804Z,76.90
2019-05-11T14:44:41.143Z,77.10
2019-05-11T14:45:13.770Z,76.60
2019-05-11T14:45:48.644Z,76.90
2019-05-11T14:46:21.481Z,77.10